Time;durP1;ratioP1;P1;durP2;ratioP2;P2;SDS_P1;SDS_P2;PMS_P1;PMS_P2;Temp;Humidity;BMP_temperature;BMP_pressure;BME280_temperature;BME280_humidity;BME280_pressure;Samples;Min_cycle;Max_cycle;Signal;HPM_P1;HPM_P2
2021/04/25 00:01:49;;;;;;;1999.90;999.90;;;;;;;4.42;85.40;95979.34;5069969;28;20188;-62
2021/04/25 00:04:16;;;;;;;1999.90;999.90;;;;;;;4.54;85.86;95979.94;5069979;28;20197;-62
2021/04/25 00:06:44;;;;;;;1999.90;999.90;;;;;;;4.51;86.60;95976.09;5070157;28;20218;-62
2021/04/25 00:09:11;;;;;;;1999.90;999.90;;;;;;;4.35;86.69;95979.50;5069999;28;20200;-63
2021/04/25 00:11:37;;;;;;;1999.90;999.90;;;;;;;4.51;86.81;95972.72;5069433;28;20283;-62
2021/04/25 00:14:06;;;;;;;1999.90;999.90;;;;;;;4.48;86.53;95976.59;5070125;28;20199;-62
2021/04/25 00:16:33;;;;;;;1999.90;999.90;;;;;;;4.47;86.82;95971.66;5069793;28;20209;-62
2021/04/25 00:19:00;;;;;;;1999.90;999.90;;;;;;;4.38;87.52;95980.84;5069977;28;20279;-61
2021/04/25 00:21:28;;;;;;;1999.90;999.90;;;;;;;4.30;88.24;95969.16;5069947;28;20253;-63
2021/04/25 00:23:55;;;;;;;1999.90;999.90;;;;;;;4.22;88.31;95967.03;5069683;28;20192;-62
2021/04/25 00:26:22;;;;;;;1999.90;999.90;;;;;;;4.09;89.75;95977.69;5069777;28;20695;-64
2021/04/25 00:28:49;;;;;;;1999.90;999.90;;;;;;;4.06;89.51;95984.09;5069762;28;20204;-64
2021/04/25 00:31:17;;;;;;;1999.90;999.90;;;;;;;4.02;90.14;95974.53;5070018;28;20254;-63
2021/04/25 00:33:44;;;;;;;1999.90;999.90;;;;;;;3.96;89.92;95983.19;5069727;28;20197;-63
2021/04/25 00:36:12;;;;;;;1999.90;999.90;;;;;;;3.86;89.67;95978.69;5069609;28;20679;-63
2021/04/25 00:38:38;;;;;;;1999.90;999.90;;;;;;;3.79;90.60;95984.00;5069616;28;20200;-63
2021/04/25 00:41:06;;;;;;;1999.90;999.90;;;;;;;3.78;89.24;95977.34;5069587;28;20193;-64
2021/04/25 00:43:33;;;;;;;1999.90;999.90;;;;;;;3.72;89.70;95978.28;5069816;28;20193;-63
2021/04/25 00:46:00;;;;;;;1999.90;999.90;;;;;;;3.66;89.04;95974.09;5069863;28;20250;-62
2021/04/25 00:48:28;;;;;;;1999.90;999.90;;;;;;;3.68;90.17;95979.00;5069517;28;20203;-63
2021/04/25 00:50:54;;;;;;;1999.90;999.90;;;;;;;3.72;90.81;95977.50;5069454;28;20203;-65
2021/04/25 00:53:22;;;;;;;1999.90;999.90;;;;;;;3.76;90.90;95968.28;5069688;28;20327;-63
2021/04/25 00:55:51;;;;;;;1999.90;999.90;;;;;;;3.77;91.05;95969.84;5069531;28;20200;-63
2021/04/25 00:58:18;;;;;;;1999.90;999.90;;;;;;;3.62;91.86;95972.22;5070326;28;20748;-62
2021/04/25 01:00:46;;;;;;;1999.90;999.90;;;;;;;3.52;91.45;95969.53;5073114;28;20275;-63
2021/04/25 01:03:12;;;;;;;1999.90;999.90;;;;;;;3.45;91.99;95970.47;5073202;28;20250;-63
2021/04/25 01:05:41;;;;;;;1999.90;999.90;;;;;;;3.43;92.30;95975.06;5073259;28;20282;-62
2021/04/25 01:08:08;;;;;;;1999.90;999.90;;;;;;;3.56;92.30;95978.31;5073310;28;20204;-62
2021/04/25 01:10:35;;;;;;;1999.90;999.90;;;;;;;3.62;90.87;95972.22;5073105;28;20299;-63
2021/04/25 01:13:02;;;;;;;1999.90;999.90;;;;;;;3.61;91.05;95978.38;5072640;28;20228;-62
2021/04/25 01:15:29;;;;;;;1999.90;999.90;;;;;;;3.53;91.35;95973.66;5072888;28;20204;-62
2021/04/25 01:17:56;;;;;;;1999.90;999.90;;;;;;;3.58;91.56;95976.28;5072947;28;20193;-64
2021/04/25 01:20:23;;;;;;;1999.90;999.90;;;;;;;3.56;91.78;95979.09;5072778;28;20204;-63
2021/04/25 01:22:52;;;;;;;1999.90;999.90;;;;;;;3.60;93.10;95985.31;5072826;28;20201;-63
2021/04/25 01:25:21;;;;;;;1999.90;999.90;;;;;;;3.66;92.35;95978.44;5072746;28;20675;-62
2021/04/25 01:27:48;;;;;;;1999.90;999.90;;;;;;;3.62;92.60;95977.38;5072836;28;20598;-64
2021/04/25 01:30:20;;;;;;;1999.90;999.90;;;;;;;3.64;92.22;95981.25;5072702;28;20211;-63
2021/04/25 01:32:47;;;;;;;1999.90;999.90;;;;;;;3.71;92.23;95975.94;5072607;28;20232;-64
2021/04/25 01:35:20;;;;;;;1999.90;999.90;;;;;;;3.71;92.61;95970.81;5072645;28;20283;-62
2021/04/25 01:37:48;;;;;;;1999.90;999.90;;;;;;;3.66;92.60;95965.59;5072559;28;20245;-63
2021/04/25 01:40:17;;;;;;;1999.90;999.90;;;;;;;3.70;92.41;95970.03;5072574;28;20228;-63
2021/04/25 01:42:44;;;;;;;1999.90;999.90;;;;;;;3.71;92.28;95970.81;5072477;28;20196;-63
2021/04/25 01:45:16;;;;;;;1999.90;999.90;;;;;;;3.86;91.27;95971.78;5072364;28;20196;-63
2021/04/25 01:47:45;;;;;;;1999.90;999.90;;;;;;;3.81;91.53;95961.44;5072373;28;20667;-63
2021/04/25 01:50:13;;;;;;;1999.90;999.90;;;;;;;3.89;90.68;95960.22;5072511;28;20199;-62
2021/04/25 01:52:40;;;;;;;1999.90;999.90;;;;;;;3.99;89.84;95957.00;5072235;28;20238;-63
2021/04/25 01:55:08;;;;;;;1999.90;999.90;;;;;;;3.96;89.57;95963.41;5072247;28;20200;-62
2021/04/25 01:57:36;;;;;;;1999.90;999.90;;;;;;;3.86;89.97;95960.72;5072392;28;20193;-63
2021/04/25 02:00:06;;;;;;;1999.90;999.90;;;;;;;3.81;89.34;95958.06;5072339;28;20196;-63
2021/04/25 02:02:33;;;;;;;1999.90;999.90;;;;;;;3.84;89.33;95958.38;5072361;28;20250;-62
2021/04/25 02:05:00;;;;;;;1999.90;999.90;;;;;;;3.83;88.96;95956.84;5072278;28;20218;-63
2021/04/25 02:07:27;;;;;;;1999.90;999.90;;;;;;;3.84;88.75;95957.59;5072279;28;20200;-62
2021/04/25 02:09:57;;;;;;;1999.90;999.90;;;;;;;3.87;89.47;95957.13;5071789;28;20188;-62
2021/04/25 02:12:24;;;;;;;1999.90;999.90;;;;;;;3.82;87.78;95962.22;5071532;28;20243;-64
2021/04/25 02:14:52;;;;;;;1999.90;999.90;;;;;;;3.75;88.97;95962.38;5071758;28;20249;-62
2021/04/25 02:17:19;;;;;;;1999.90;999.90;;;;;;;3.56;89.55;95960.31;5072250;28;20295;-62
2021/04/25 02:19:45;;;;;;;1999.90;999.90;;;;;;;3.53;89.50;95953.09;5071835;28;20281;-62
2021/04/25 02:22:12;;;;;;;1999.90;999.90;;;;;;;3.57;90.26;95954.19;5071803;28;20196;-63
2021/04/25 02:24:39;;;;;;;1999.90;999.90;;;;;;;3.50;89.42;95958.69;5072258;28;20271;-63
2021/04/25 02:27:06;;;;;;;1999.90;999.90;;;;;;;3.45;90.63;95957.63;5071717;28;20192;-62
2021/04/25 02:29:33;;;;;;;1999.90;999.90;;;;;;;3.44;90.50;95955.28;5072069;28;20199;-62
2021/04/25 02:32:02;;;;;;;1999.90;999.90;;;;;;;3.51;90.16;95947.41;5071702;28;20231;-63
2021/04/25 02:34:28;;;;;;;1999.90;999.90;;;;;;;3.43;89.50;95944.25;5071630;28;20250;-62
2021/04/25 02:36:55;;;;;;;1999.90;999.90;;;;;;;3.53;89.40;95942.81;5071327;28;20188;-63
2021/04/25 02:39:22;;;;;;;1999.90;999.90;;;;;;;3.49;88.97;95944.31;5071347;28;20223;-62
2021/04/25 02:41:48;;;;;;;1999.90;999.90;;;;;;;3.61;89.33;95947.53;5071358;28;20193;-63
2021/04/25 02:44:15;;;;;;;1999.90;999.90;;;;;;;3.55;89.67;95945.91;5071256;28;20200;-64
2021/04/25 02:46:42;;;;;;;1999.90;999.90;;;;;;;3.47;89.47;95952.25;5071370;28;20621;-62
2021/04/25 02:49:10;;;;;;;1999.90;999.90;;;;;;;3.36;90.02;95943.63;5071148;28;20284;-64
2021/04/25 02:51:37;;;;;;;1999.90;999.90;;;;;;;3.35;90.35;95936.94;5071058;28;20192;-62
2021/04/25 02:54:04;;;;;;;1999.90;999.90;;;;;;;3.31;90.78;95938.41;5071272;28;20209;-62
2021/04/25 02:56:32;;;;;;;1999.90;999.90;;;;;;;3.51;89.55;95934.56;5071386;28;20207;-63
2021/04/25 02:58:58;;;;;;;1999.90;999.90;;;;;;;3.44;89.95;95943.22;5070933;28;20288;-64
2021/04/25 03:01:25;;;;;;;1999.90;999.90;;;;;;;3.57;88.33;95939.53;5071172;28;20199;-62
2021/04/25 03:03:52;;;;;;;1999.90;999.90;;;;;;;3.44;88.80;95940.66;5071208;28;20196;-63
2021/04/25 03:06:20;;;;;;;1999.90;999.90;;;;;;;3.58;88.28;95935.97;5070890;28;20632;-62
2021/04/25 03:08:46;;;;;;;1999.90;999.90;;;;;;;3.51;88.49;95934.56;5070773;28;20199;-62
2021/04/25 03:11:13;;;;;;;1999.90;999.90;;;;;;;3.40;88.67;95938.78;5070307;28;20224;-63
2021/04/25 03:13:40;;;;;;;1999.90;999.90;;;;;;;3.36;88.27;95938.50;5070561;28;20838;-62
2021/04/25 03:16:08;;;;;;;1999.90;999.90;;;;;;;3.38;88.54;95936.47;5070706;28;20192;-63
2021/04/25 03:18:35;;;;;;;1999.90;999.90;;;;;;;3.20;89.62;95939.28;5070813;28;20189;-64
2021/04/25 03:21:02;;;;;;;1999.90;999.90;;;;;;;3.15;90.75;95941.00;5069980;28;20203;-63
2021/04/25 03:23:30;;;;;;;1999.90;999.90;;;;;;;3.19;90.71;95932.59;5070505;28;20668;-63
2021/04/25 03:25:56;;;;;;;1999.90;999.90;;;;;;;3.26;91.24;95935.78;5070841;28;20196;-62
2021/04/25 03:28:23;;;;;;;1999.90;999.90;;;;;;;3.08;90.32;95946.31;5070808;28;20291;-63
2021/04/25 03:30:50;;;;;;;1999.90;999.90;;;;;;;2.98;90.94;95944.38;5070500;28;20724;-63
2021/04/25 03:33:17;;;;;;;1999.90;999.90;;;;;;;2.98;90.18;95938.47;5070396;28;20227;-64
2021/04/25 03:35:44;;;;;;;1999.90;999.90;;;;;;;2.93;89.91;95946.09;5070183;28;20195;-62
2021/04/25 03:38:11;;;;;;;1999.90;999.90;;;;;;;2.82;89.85;95940.00;5070613;28;20635;-64
2021/04/25 03:40:39;;;;;;;1999.90;999.90;;;;;;;2.62;90.61;95942.25;5070436;28;20663;-62
2021/04/25 03:43:06;;;;;;;1999.90;999.90;;;;;;;2.69;90.82;95942.13;5070533;28;20191;-63
2021/04/25 03:45:32;;;;;;;1999.90;999.90;;;;;;;2.64;90.67;95944.59;5070290;28;20199;-62
2021/04/25 03:47:59;;;;;;;1999.90;999.90;;;;;;;2.47;92.27;95947.91;5070109;28;20624;-63
2021/04/25 03:50:27;;;;;;;1999.90;999.90;;;;;;;2.51;91.86;95945.66;5070247;28;20213;-64
2021/04/25 03:52:55;;;;;;;1999.90;999.90;;;;;;;2.57;92.02;95945.50;5070104;28;20220;-63
2021/04/25 03:55:24;;;;;;;1999.90;999.90;;;;;;;2.57;91.84;95944.75;5070146;28;20264;-62
2021/04/25 03:57:52;;;;;;;1999.90;999.90;;;;;;;2.43;92.34;95948.59;5070418;28;20207;-63
2021/04/25 04:00:20;;;;;;;1999.90;999.90;;;;;;;2.46;92.87;95948.91;5069974;28;20203;-62
2021/04/25 04:02:47;;;;;;;1999.90;999.90;;;;;;;2.62;92.68;95954.31;5070074;28;20218;-62
2021/04/25 04:05:14;;;;;;;1999.90;999.90;;;;;;;2.58;92.14;95954.78;5070283;28;20192;-62
2021/04/25 04:07:41;;;;;;;1999.90;999.90;;;;;;;2.72;92.38;95944.97;5070174;28;20644;-64
2021/04/25 04:10:09;;;;;;;1999.90;999.90;;;;;;;3.37;90.58;95958.03;5070104;28;20604;-63
2021/04/25 04:12:36;;;;;;;1999.90;999.90;;;;;;;3.93;88.10;95957.97;5069705;28;20240;-63
2021/04/25 04:15:05;;;;;;;1999.90;999.90;;;;;;;4.38;85.04;95961.03;5069906;28;20275;-63
2021/04/25 04:17:32;;;;;;;1999.90;999.90;;;;;;;4.74;81.72;95955.19;5069952;28;20198;-61
2021/04/25 04:19:58;;;;;;;1999.90;999.90;;;;;;;5.25;78.89;95959.94;5069932;28;20251;-62
2021/04/25 04:22:25;;;;;;;1999.90;999.90;;;;;;;5.61;77.48;95969.47;5069848;28;20236;-62
2021/04/25 04:24:52;;;;;;;1999.90;999.90;;;;;;;5.58;77.68;95969.94;5069809;28;20196;-62
2021/04/25 04:27:19;;;;;;;1999.90;999.90;;;;;;;5.86;78.29;95974.75;5069914;28;20215;-61
2021/04/25 04:29:46;;;;;;;1999.90;999.90;;;;;;;6.56;75.62;95970.88;5069796;28;20189;-63
2021/04/25 04:32:14;;;;;;;1999.90;999.90;;;;;;;7.11;73.82;95977.91;5069878;28;20234;-63
2021/04/25 04:34:41;;;;;;;1999.90;999.90;;;;;;;7.53;72.35;95984.56;5073124;28;20199;-63
2021/04/25 04:37:08;;;;;;;1999.90;999.90;;;;;;;7.37;71.69;95983.84;5074441;28;20204;-64
2021/04/25 04:39:35;;;;;;;1999.90;999.90;;;;;;;7.68;71.03;95982.72;5073722;28;20291;-64
2021/04/25 04:42:02;;;;;;;1999.90;999.90;;;;;;;7.93;70.26;95992.22;5073763;28;20198;-64
2021/04/25 04:44:29;;;;;;;1999.90;999.90;;;;;;;8.29;69.61;95992.09;5073634;28;20250;-62
2021/04/25 04:46:56;;;;;;;1999.90;999.90;;;;;;;8.07;69.44;95998.38;5073780;28;20667;-63
2021/04/25 04:49:25;;;;;;;1999.90;999.90;;;;;;;8.01;69.99;95999.47;5073391;28;20196;-61
2021/04/25 04:51:52;;;;;;;1999.90;999.90;;;;;;;8.25;70.30;96007.41;5073193;28;20254;-62
2021/04/25 04:54:18;;;;;;;1999.90;999.90;;;;;;;7.95;70.75;96007.50;5073491;28;20197;-62
2021/04/25 04:56:45;;;;;;;1999.90;999.90;;;;;;;7.64;72.36;95999.03;5073428;28;20640;-62
2021/04/25 04:59:13;;;;;;;1999.90;999.90;;;;;;;7.52;73.81;96001.13;5073589;28;20204;-62
2021/04/25 05:01:40;;;;;;;1999.90;999.90;;;;;;;7.34;73.83;96000.63;5073315;28;20209;-62
2021/04/25 05:04:07;;;;;;;1999.90;999.90;;;;;;;7.40;74.66;96003.97;5073132;28;20192;-62
2021/04/25 05:06:35;;;;;;;1999.90;999.90;;;;;;;7.27;74.12;95997.50;5073284;28;20196;-62
2021/04/25 05:09:01;;;;;;;1999.90;999.90;;;;;;;7.01;74.04;95997.78;5073119;28;20616;-62
2021/04/25 05:11:28;;;;;;;1999.90;999.90;;;;;;;6.81;75.49;95994.16;5072569;28;20274;-62
2021/04/25 05:13:55;;;;;;;1999.90;999.90;;;;;;;6.85;76.74;95995.19;5073206;28;20232;-62
2021/04/25 05:16:22;;;;;;;1999.90;999.90;;;;;;;6.48;77.94;95997.16;5072960;28;20197;-62
2021/04/25 05:18:49;;;;;;;1999.90;999.90;;;;;;;6.81;78.61;95996.75;5072770;28;20200;-62
2021/04/25 05:21:16;;;;;;;1999.90;999.90;;;;;;;7.05;78.35;95997.00;5072799;28;20195;-62
2021/04/25 05:23:43;;;;;;;1999.90;999.90;;;;;;;7.17;77.54;95994.19;5072672;28;20279;-62
2021/04/25 05:26:11;;;;;;;1999.90;999.90;;;;;;;7.18;78.27;95998.28;5072566;28;20608;-61
2021/04/25 05:28:38;;;;;;;1999.90;999.90;;;;;;;7.27;78.93;95989.75;5072639;28;20208;-62
2021/04/25 05:31:04;;;;;;;1999.90;999.90;;;;;;;7.29;77.11;95997.25;5072712;28;20215;-62
2021/04/25 05:33:32;;;;;;;1999.90;999.90;;;;;;;7.50;75.27;96000.59;5072340;28;20311;-62
2021/04/25 05:35:59;;;;;;;1999.90;999.90;;;;;;;7.23;76.04;95993.13;5072255;28;20196;-63
2021/04/25 05:38:26;;;;;;;1999.90;999.90;;;;;;;7.46;78.02;95990.03;5072241;28;20644;-62
2021/04/25 05:40:54;;;;;;;1999.90;999.90;;;;;;;7.65;77.51;95998.00;5072254;28;20339;-63
2021/04/25 05:43:21;;;;;;;1999.90;999.90;;;;;;;7.87;75.22;95995.84;5072305;28;20257;-62
2021/04/25 05:45:48;;;;;;;1999.90;999.90;;;;;;;7.91;74.49;96002.09;5072007;28;20602;-62
2021/04/25 05:48:14;;;;;;;1999.90;999.90;;;;;;;7.86;74.02;95998.72;5072105;28;20196;-62
2021/04/25 05:50:41;;;;;;;1999.90;999.90;;;;;;;7.99;75.08;95993.78;5072310;28;20188;-63
2021/04/25 05:53:08;;;;;;;1999.90;999.90;;;;;;;8.15;75.90;96002.25;5071900;28;20351;-62
2021/04/25 05:55:35;;;;;;;1999.90;999.90;;;;;;;8.35;73.17;95998.84;5072276;28;20228;-63
2021/04/25 05:58:03;;;;;;;1999.90;999.90;;;;;;;8.40;69.27;96009.19;5072119;28;20196;-62
2021/04/25 06:00:33;;;;;;;1999.90;999.90;;;;;;;8.54;68.99;96005.72;5072149;28;20200;-62
2021/04/25 06:02:59;;;;;;;1999.90;999.90;;;;;;;8.76;67.90;96007.19;5071960;28;20192;-63
2021/04/25 06:05:27;;;;;;;1999.90;999.90;;;;;;;8.92;67.11;96001.59;5072044;28;20287;-62
2021/04/25 06:07:54;;;;;;;1999.90;999.90;;;;;;;9.06;67.68;95994.78;5071955;28;20193;-62
2021/04/25 06:10:21;;;;;;;1999.90;999.90;;;;;;;9.40;67.77;95989.59;5072096;28;20294;-63
2021/04/25 06:12:49;;;;;;;1999.90;999.90;;;;;;;9.70;65.91;95993.72;5071584;28;20691;-63
2021/04/25 06:15:20;;;;;;;1999.90;999.90;;;;;;;9.90;63.70;95984.94;5071775;28;20197;-62
2021/04/25 06:17:47;;;;;;;1999.90;999.90;;;;;;;10.04;63.96;95988.41;5072209;28;20595;-61
2021/04/25 06:20:15;;;;;;;1999.90;999.90;;;;;;;10.27;62.72;95990.25;5070194;28;20197;-63
2021/04/25 06:22:42;;;;;;;1999.90;999.90;;;;;;;10.49;61.90;95994.91;5071414;28;20750;-65
2021/04/25 06:25:11;;;;;;;1999.90;999.90;;;;;;;10.64;60.82;95988.75;5071424;28;20626;-62
2021/04/25 06:27:38;;;;;;;1999.90;999.90;;;;;;;10.74;60.85;95986.78;5071700;28;20192;-63
2021/04/25 06:30:07;;;;;;;1999.90;999.90;;;;;;;10.90;60.53;95987.34;5071304;28;20231;-63
2021/04/25 06:32:35;;;;;;;1999.90;999.90;;;;;;;10.98;66.84;95972.91;5071212;28;20318;-63
2021/04/25 06:35:03;;;;;;;1999.90;999.90;;;;;;;11.07;68.57;95974.59;5071467;28;20196;-65
2021/04/25 06:37:29;;;;;;;1999.90;999.90;;;;;;;11.29;61.21;95981.00;5071377;28;20241;-63
2021/04/25 06:39:56;;;;;;;1999.90;999.90;;;;;;;11.09;63.83;95979.50;5071350;28;20354;-62
2021/04/25 06:42:23;;;;;;;1999.90;999.90;;;;;;;11.08;64.62;95968.34;5071344;28;20672;-63
2021/04/25 06:44:50;;;;;;;1999.90;999.90;;;;;;;11.27;62.45;95973.50;5071231;28;20223;-63
2021/04/25 06:47:17;;;;;;;1999.90;999.90;;;;;;;11.55;61.78;95971.72;5070895;28;20197;-63
2021/04/25 06:49:45;;;;;;;1999.90;999.90;;;;;;;11.58;58.44;95965.94;5070664;28;20562;-63
2021/04/25 06:52:12;;;;;;;1999.90;999.90;;;;;;;11.16;60.93;95957.25;5070643;28;20307;-62
2021/04/25 06:54:39;;;;;;;1999.90;999.90;;;;;;;11.49;64.09;95946.84;5071044;28;20204;-64
2021/04/25 06:57:07;;;;;;;1999.90;999.90;;;;;;;11.36;64.82;95942.38;5069927;28;20291;-63
2021/04/25 06:59:34;;;;;;;1999.90;999.90;;;;;;;11.51;65.87;95939.50;5070749;28;20193;-65
2021/04/25 07:02:01;;;;;;;1999.90;999.90;;;;;;;11.74;65.95;95945.66;5070671;28;20275;-65
2021/04/25 07:04:28;;;;;;;1999.90;999.90;;;;;;;11.95;61.89;95947.59;5070886;28;20650;-64
2021/04/25 07:06:56;;;;;;;1999.90;999.90;;;;;;;12.09;64.04;95950.19;5070702;28;20325;-64
2021/04/25 07:09:22;;;;;;;1999.90;999.90;;;;;;;11.97;62.53;95944.66;5070572;28;20287;-64
2021/04/25 07:11:49;;;;;;;1999.90;999.90;;;;;;;12.23;65.37;95942.34;5070242;28;20251;-64
2021/04/25 07:14:16;;;;;;;1999.90;999.90;;;;;;;12.64;61.50;95943.03;5070421;28;20747;-65
2021/04/25 07:16:43;;;;;;;1999.90;999.90;;;;;;;12.82;63.37;95936.09;5070579;28;20197;-65
2021/04/25 07:19:10;;;;;;;1999.90;999.90;;;;;;;12.66;60.80;95933.06;5070420;28;20202;-64
2021/04/25 07:21:36;;;;;;;1999.90;999.90;;;;;;;12.67;60.65;95932.00;5070658;28;20283;-64
2021/04/25 07:24:05;;;;;;;1999.90;999.90;;;;;;;12.99;60.24;95935.44;5070482;28;20200;-64
2021/04/25 07:26:32;;;;;;;1999.90;999.90;;;;;;;13.01;57.52;95926.25;5070483;28;20295;-64
2021/04/25 07:28:59;;;;;;;1999.90;999.90;;;;;;;12.92;62.26;95920.97;5070059;28;20686;-64
2021/04/25 07:31:25;;;;;;;1999.90;999.90;;;;;;;12.63;58.42;95923.22;5070402;28;20223;-64
2021/04/25 07:33:53;;;;;;;1999.90;999.90;;;;;;;12.60;60.45;95923.06;5070078;28;20228;-64
2021/04/25 07:36:20;;;;;;;1999.90;999.90;;;;;;;13.06;62.07;95914.91;5068762;28;20675;-65
2021/04/25 07:38:47;;;;;;;1999.90;999.90;;;;;;;13.49;60.17;95918.56;5070213;28;20283;-65
2021/04/25 07:41:14;;;;;;;1999.90;999.90;;;;;;;13.47;58.98;95923.31;5069851;28;20198;-63
2021/04/25 07:43:41;;;;;;;1999.90;999.90;;;;;;;13.82;54.18;95923.44;5069852;28;20284;-65
2021/04/25 07:46:09;;;;;;;1999.90;999.90;;;;;;;13.90;54.84;95914.88;5070063;28;20196;-64
2021/04/25 07:48:35;;;;;;;1999.90;999.90;;;;;;;13.85;53.94;95904.56;5069951;28;20580;-64
2021/04/25 07:51:04;;;;;;;1999.90;999.90;;;;;;;13.78;56.31;95911.00;5069973;28;20202;-65
2021/04/25 07:53:30;;;;;;;1999.90;999.90;;;;;;;13.67;54.90;95904.50;5069951;28;20227;-64
2021/04/25 07:55:57;;;;;;;1999.90;999.90;;;;;;;14.13;54.04;95905.84;5069929;28;20200;-64
2021/04/25 07:58:25;;;;;;;1999.90;999.90;;;;;;;14.20;49.79;95903.53;5069736;28;20231;-64
2021/04/25 08:00:52;;;;;;;1999.90;999.90;;;;;;;14.21;51.47;95903.25;5069730;28;20200;-65
2021/04/25 08:03:18;;;;;;;1999.90;999.90;;;;;;;14.33;56.17;95899.28;5070182;28;20297;-65
2021/04/25 08:05:45;;;;;;;1999.90;999.90;;;;;;;14.37;52.54;95900.22;5069828;28;20203;-62
2021/04/25 08:08:13;;;;;;;1999.90;999.90;;;;;;;14.39;51.45;95893.63;5069498;28;20203;-64
2021/04/25 08:10:44;;;;;;;1999.90;999.90;;;;;;;14.82;54.66;95884.97;5069972;28;20220;-64
2021/04/25 08:13:11;;;;;;;1999.90;999.90;;;;;;;14.85;56.19;95890.34;5069380;28;20231;-65
2021/04/25 08:15:39;;;;;;;1999.90;999.90;;;;;;;14.81;53.85;95889.44;5069683;28;20254;-63
2021/04/25 08:18:06;;;;;;;1999.90;999.90;;;;;;;14.86;53.20;95883.28;5069556;28;20202;-63
2021/04/25 08:20:32;;;;;;;1999.90;999.90;;;;;;;14.85;51.20;95882.50;5069885;28;20208;-64
2021/04/25 08:23:00;;;;;;;1999.90;999.90;;;;;;;15.04;54.21;95871.72;5069669;28;20292;-63
2021/04/25 08:25:27;;;;;;;1999.90;999.90;;;;;;;15.35;52.87;95864.34;5069581;28;20197;-63
2021/04/25 08:27:54;;;;;;;1999.90;999.90;;;;;;;15.43;46.27;95862.81;5069740;28;20330;-64
2021/04/25 08:30:22;;;;;;;1999.90;999.90;;;;;;;15.47;50.57;95853.22;5069511;28;20192;-64
2021/04/25 08:32:50;;;;;;;1999.90;999.90;;;;;;;15.61;50.60;95848.56;5069649;28;20250;-63
2021/04/25 08:35:18;;;;;;;1999.90;999.90;;;;;;;15.70;50.10;95848.50;5069431;28;20197;-64
2021/04/25 08:37:45;;;;;;;1999.90;999.90;;;;;;;16.05;46.59;95855.09;5069288;28;20192;-64
2021/04/25 08:40:13;;;;;;;1999.90;999.90;;;;;;;16.18;46.37;95855.94;5069413;28;20221;-64
2021/04/25 08:42:40;;;;;;;1999.90;999.90;;;;;;;16.13;42.87;95849.03;5069253;28;20728;-64
2021/04/25 08:45:08;;;;;;;1999.90;999.90;;;;;;;16.09;44.06;95844.75;5069778;28;20236;-64
2021/04/25 08:47:43;;;;;;;1999.90;999.90;;;;;;;15.89;45.73;95849.63;5069318;28;20202;-64
2021/04/25 08:50:13;;;;;;;1999.90;999.90;;;;;;;16.23;42.06;95848.66;5069316;28;20206;-64
2021/04/25 08:52:41;;;;;;;1999.90;999.90;;;;;;;16.19;43.04;95847.00;5069198;28;20261;-64
2021/04/25 08:55:10;;;;;;;1999.90;999.90;;;;;;;16.31;40.13;95839.16;5069587;28;20273;-64
2021/04/25 08:57:36;;;;;;;1999.90;999.90;;;;;;;16.41;39.53;95832.75;5069517;28;20502;-66
2021/04/25 09:00:05;;;;;;;1999.90;999.90;;;;;;;16.18;39.45;95830.50;5069148;28;20279;-64
2021/04/25 09:02:32;;;;;;;1999.90;999.90;;;;;;;16.33;43.62;95829.91;5069245;28;20731;-64
2021/04/25 09:04:59;;;;;;;1999.90;999.90;;;;;;;16.34;43.50;95823.56;5069110;28;20196;-65
2021/04/25 09:07:27;;;;;;;1999.90;999.90;;;;;;;16.28;43.19;95824.84;5069126;28;20613;-64
2021/04/25 09:09:55;;;;;;;1999.90;999.90;;;;;;;16.52;44.43;95816.31;5069624;28;20274;-64
2021/04/25 09:12:37;;;;;;;1999.90;999.90;;;;;;;16.53;42.04;95824.97;5069328;28;20256;-64
2021/04/25 09:15:24;;;;;;;1999.90;999.90;;;;;;;16.77;44.06;95815.34;5069659;28;20192;-64
2021/04/25 09:17:52;;;;;;;1999.90;999.90;;;;;;;16.44;42.83;95805.91;5069463;28;20719;-64
2021/04/25 09:20:20;;;;;;;1999.90;999.90;;;;;;;16.67;43.39;95799.22;5071576;28;20567;-64
2021/04/25 09:22:50;;;;;;;1999.90;999.90;;;;;;;16.75;44.79;95793.13;5072599;28;20200;-64
2021/04/25 09:25:19;;;;;;;1999.90;999.90;;;;;;;16.99;44.18;95795.78;5072859;28;20200;-64
2021/04/25 09:27:48;;;;;;;1999.90;999.90;;;;;;;17.08;40.78;95787.84;5072455;28;20200;-64
2021/04/25 09:30:22;;;;;;;1999.90;999.90;;;;;;;17.03;36.62;95780.94;5072748;28;20193;-64
2021/04/25 09:32:49;;;;;;;1999.90;999.90;;;;;;;16.97;36.60;95784.84;5072379;28;20228;-63
2021/04/25 09:35:18;;;;;;;1999.90;999.90;;;;;;;16.86;38.26;95773.25;5072519;28;20192;-64
2021/04/25 09:37:48;;;;;;;1999.90;999.90;;;;;;;16.86;42.06;95775.09;5072294;28;20227;-64
2021/04/25 09:40:17;;;;;;;1999.90;999.90;;;;;;;16.95;41.26;95773.13;5072295;28;20193;-64
2021/04/25 09:43:01;;;;;;;1999.90;999.90;;;;;;;17.12;41.26;95771.09;5072491;28;20196;-65
2021/04/25 09:45:31;;;;;;;1999.90;999.90;;;;;;;17.17;41.72;95772.72;5072721;28;20753;-64
2021/04/25 09:48:00;;;;;;;1999.90;999.90;;;;;;;17.29;38.02;95761.44;5072143;28;20232;-64
2021/04/25 09:50:31;;;;;;;1999.90;999.90;;;;;;;17.30;41.21;95762.97;5072133;28;20193;-64
2021/04/25 09:53:01;;;;;;;1999.90;999.90;;;;;;;17.15;40.88;95754.66;5072698;28;20248;-63
2021/04/25 09:55:29;;;;;;;1999.90;999.90;;;;;;;17.09;40.92;95755.97;5072376;28;20228;-64
2021/04/25 09:57:57;;;;;;;1999.90;999.90;;;;;;;17.02;41.78;95747.88;5072144;28;20196;-64
2021/04/25 10:00:38;;;;;;;1999.90;999.90;;;;;;;17.30;42.51;95741.97;5072000;28;20196;-64
2021/04/25 10:03:09;;;;;;;1999.90;999.90;;;;;;;17.47;41.64;95739.88;5072119;28;20205;-63
2021/04/25 10:05:37;;;;;;;1999.90;999.90;;;;;;;17.70;44.00;95734.16;5071812;28;20196;-63
2021/04/25 10:08:06;;;;;;;1999.90;999.90;;;;;;;17.63;40.00;95735.47;5071938;28;20232;-63
2021/04/25 10:10:34;;;;;;;1999.90;999.90;;;;;;;17.81;36.29;95720.22;5071533;28;20220;-64
2021/04/25 10:13:01;;;;;;;1999.90;999.90;;;;;;;17.83;37.40;95720.66;5071300;28;20667;-64
2021/04/25 10:15:27;;;;;;;1999.90;999.90;;;;;;;17.85;39.23;95710.56;5071498;28;20198;-64
2021/04/25 10:17:55;;;;;;;1999.90;999.90;;;;;;;18.01;43.04;95706.13;5071919;28;20201;-64
2021/04/25 10:20:24;;;;;;;1999.90;999.90;;;;;;;18.13;39.74;95700.06;5071456;28;20204;-64
2021/04/25 10:22:52;;;;;;;1999.90;999.90;;;;;;;18.03;40.37;95698.66;5071469;28;20198;-64
2021/04/25 10:25:32;;;;;;;1999.90;999.90;;;;;;;17.69;37.02;95696.59;5071740;28;20283;-64
2021/04/25 10:28:01;;;;;;;1999.90;999.90;;;;;;;17.95;42.28;95696.94;5071392;28;20200;-64
2021/04/25 10:30:35;;;;;;;1999.90;999.90;;;;;;;17.99;37.62;95697.03;5071511;28;20200;-64
2021/04/25 10:33:02;;;;;;;1999.90;999.90;;;;;;;17.85;36.96;95694.03;5071404;28;20707;-64
2021/04/25 10:35:32;;;;;;;1999.90;999.90;;;;;;;17.77;38.83;95692.31;5071424;28;20207;-64
2021/04/25 10:38:00;;;;;;;1999.90;999.90;;;;;;;17.90;38.74;95691.16;5071212;28;20196;-62
2021/04/25 10:40:33;;;;;;;1999.90;999.90;;;;;;;18.22;41.29;95687.53;5071295;28;20204;-64
2021/04/25 10:43:05;;;;;;;1999.90;999.90;;;;;;;18.11;38.97;95677.81;5071088;28;20207;-64
2021/04/25 10:45:35;;;;;;;1999.90;999.90;;;;;;;18.41;39.52;95684.25;5071187;28;20192;-64
2021/04/25 10:48:38;;;;;;;1999.90;999.90;;;;;;;18.51;39.85;95686.38;5071065;28;20293;-64
2021/04/25 10:51:11;;;;;;;1999.90;999.90;;;;;;;18.53;39.84;95681.53;5070784;28;20241;-62
2021/04/25 10:53:41;;;;;;;1999.90;999.90;;;;;;;18.54;37.48;95679.69;5071096;28;20260;-63
2021/04/25 10:56:40;;;;;;;1999.90;999.90;;;;;;;18.37;40.23;95668.38;5070761;28;20189;-64
2021/04/25 10:59:27;;;;;;;1999.90;999.90;;;;;;;18.35;36.30;95669.78;5071100;28;20238;-64
2021/04/25 11:01:56;;;;;;;1999.90;999.90;;;;;;;18.30;35.16;95667.41;5070646;28;20698;-64
2021/04/25 11:05:05;;;;;;;1999.90;999.90;;;;;;;18.37;37.64;95664.97;5070832;28;20276;-63